FCBB/BZV METAR and TAF weather

Enter ICAO airport designator
Station Type Date Time Source
FCBB METAR 2020/07/07 09:00 UTC NOAA

FCBB 070900Z 24007KT 210V280 7000 BKN020 24/20 Q1015 NOSIG


Station Type Date Time Source
FCBB Decoded METAR 2020/07/07 09:00 UTC NOAA

Brazzaville / Maya-Maya, Congo, Republic of the (FCBB) 04-15S 015-15E 316M
Jul 07, 2020 - 05:00 AM EDT / 2020.07.07 0900 UTC
Wind: from the WSW (240 degrees) at 8 MPH (7 KT) (direction variable):0
Visibility: 4 mile(s):0
Sky conditions: mostly cloudy
Temperature: 75 F (24 C)
Dew Point: 68 F (20 C)
Relative Humidity: 78%
Pressure (altimeter): 29.97 in. Hg (1015 hPa)
ob: FCBB 070900Z 24007KT 210V280 7000 BKN020 24/20 Q1015 NOSIG
cycle: 9

Station Type Date Time Source
FCBB TAF 2020/07/07 06:06 UTC NOAA

TAF TAF FCBB 070500Z 0706/0812 24004KT 3000 BR FEW010 BKN020
BECMG 0707/0709 7000 NSW PROB30 0804/0808 3000 BR

Example: see airport list